Schroeder, Texas
Current Conditions -  °F | °C
As of 5:15 PM on Tuesday 27 Jan 2015 (Local Time) from KBEA Reporting Station
Clear Clear  
Wind Chill: 79°   Ceiling: Unl
Heat Index: 79°   Visibility: 10mi
Dew Point: 37°   Wind: 3mph
Humidity: 23%   Direction: 240°WSW
Pressure: 30.11"   Gusts: NA
Location:  28.6563°N, 97.4287°W
Report Text: KBEA 272315Z AUTO 24003KT 10SM CLR 26/03 A3011 RMK AO2 T02600030
Loading
Personal Weather Stations






























Interactive Weather Map New forecast layout! Learn more

10-Day Weather Forecast

Advertisements
Track Severe Weather on mobile